sensor_id;sensor_type;location;lat;lon;timestamp;temperature;humidity
19172;DHT22;9718;52.200;21.052;2023-02-01T00:02:22;3.00;99.90
19172;DHT22;9718;52.200;21.052;2023-02-01T00:04:50;2.90;99.90
19172;DHT22;9718;52.200;21.052;2023-02-01T00:07:17;3.00;99.90
19172;DHT22;9718;52.200;21.052;2023-02-01T00:09:44;3.10;99.90
19172;DHT22;9718;52.200;21.052;2023-02-01T00:12:11;3.00;99.90
19172;DHT22;9718;52.200;21.052;2023-02-01T00:14:38;3.00;99.90
19172;DHT22;9718;52.200;21.052;2023-02-01T00:17:06;3.00;99.90
19172;DHT22;9718;52.200;21.052;2023-02-01T00:19:34;3.10;99.90
19172;DHT22;9718;52.200;21.052;2023-02-01T00:22:01;3.10;99.90
19172;DHT22;9718;52.200;21.052;2023-02-01T00:24:28;3.20;99.90
19172;DHT22;9718;52.200;21.052;2023-02-01T00:26:55;3.20;99.90
19172;DHT22;9718;52.200;21.052;2023-02-01T00:29:23;3.20;99.90
19172;DHT22;9718;52.200;21.052;2023-02-01T00:31:51;3.30;99.90
19172;DHT22;9718;52.200;21.052;2023-02-01T00:34:19;3.40;99.90
19172;DHT22;9718;52.200;21.052;2023-02-01T00:36:47;3.40;99.90
19172;DHT22;9718;52.200;21.052;2023-02-01T00:39:15;3.40;99.90
19172;DHT22;9718;52.200;21.052;2023-02-01T00:41:42;3.50;99.90
19172;DHT22;9718;52.200;21.052;2023-02-01T00:44:09;3.50;99.90
19172;DHT22;9718;52.200;21.052;2023-02-01T00:46:37;3.60;99.90
19172;DHT22;9718;52.200;21.052;2023-02-01T00:49:04;3.70;99.90
19172;DHT22;9718;52.200;21.052;2023-02-01T00:51:33;3.70;99.90
19172;DHT22;9718;52.200;21.052;2023-02-01T00:54:01;3.70;99.90
19172;DHT22;9718;52.200;21.052;2023-02-01T00:56:28;3.80;99.90
19172;DHT22;9718;52.200;21.052;2023-02-01T00:58:56;3.80;99.90
19172;DHT22;9718;52.200;21.052;2023-02-01T01:01:27;3.80;99.90
19172;DHT22;9718;52.200;21.052;2023-02-01T01:03:57;3.70;99.90
19172;DHT22;9718;52.200;21.052;2023-02-01T01:06:30;3.70;99.90
19172;DHT22;9718;52.200;21.052;2023-02-01T01:09:00;3.80;99.90
19172;DHT22;9718;52.200;21.052;2023-02-01T01:11:30;3.80;99.90
19172;DHT22;9718;52.200;21.052;2023-02-01T01:13:59;3.80;99.90
19172;DHT22;9718;52.200;21.052;2023-02-01T01:16:27;3.70;99.90
19172;DHT22;9718;52.200;21.052;2023-02-01T01:18:56;3.70;99.90
19172;DHT22;9718;52.200;21.052;2023-02-01T01:21:24;3.70;99.90
19172;DHT22;9718;52.200;21.052;2023-02-01T01:23:53;3.60;99.90
19172;DHT22;9718;52.200;21.052;2023-02-01T01:26:25;3.60;99.90
19172;DHT22;9718;52.200;21.052;2023-02-01T01:28:55;3.60;99.90
19172;DHT22;9718;52.200;21.052;2023-02-01T01:31:23;3.60;99.90
19172;DHT22;9718;52.200;21.052;2023-02-01T01:33:53;3.50;99.90
19172;DHT22;9718;52.200;21.052;2023-02-01T01:36:21;3.40;99.90
19172;DHT22;9718;52.200;21.052;2023-02-01T01:38:49;3.50;99.90
19172;DHT22;9718;52.200;21.052;2023-02-01T01:41:20;3.40;99.90
19172;DHT22;9718;52.200;21.052;2023-02-01T01:43:57;3.50;99.90
19172;DHT22;9718;52.200;21.052;2023-02-01T01:46:27;3.60;99.90
19172;DHT22;9718;52.200;21.052;2023-02-01T01:49:17;3.50;99.90
19172;DHT22;9718;52.200;21.052;2023-02-01T01:51:51;3.50;99.90
19172;DHT22;9718;52.200;21.052;2023-02-01T01:57:02;3.50;99.90
19172;DHT22;9718;52.200;21.052;2023-02-01T01:59:31;3.50;99.90
19172;DHT22;9718;52.200;21.052;2023-02-01T02:01:59;3.40;99.90
19172;DHT22;9718;52.200;21.052;2023-02-01T02:04:26;3.50;99.90
19172;DHT22;9718;52.200;21.052;2023-02-01T02:07:10;3.50;99.90
19172;DHT22;9718;52.200;21.052;2023-02-01T02:09:39;3.50;99.90
19172;DHT22;9718;52.200;21.052;2023-02-01T02:12:13;3.50;99.90
19172;DHT22;9718;52.200;21.052;2023-02-01T02:14:41;3.50;99.90
19172;DHT22;9718;52.200;21.052;2023-02-01T02:39:34;3.50;99.90
19172;DHT22;9718;52.200;21.052;2023-02-01T02:42:25;3.40;99.90
19172;DHT22;9718;52.200;21.052;2023-02-01T02:45:42;3.40;99.90
19172;DHT22;9718;52.200;21.052;2023-02-01T02:48:40;3.40;99.90
19172;DHT22;9718;52.200;21.052;2023-02-01T02:51:16;3.40;99.90
19172;DHT22;9718;52.200;21.052;2023-02-01T02:54:17;3.40;99.90
19172;DHT22;9718;52.200;21.052;2023-02-01T02:57:06;3.40;99.90
19172;DHT22;9718;52.200;21.052;2023-02-01T02:59:53;3.40;99.90
19172;DHT22;9718;52.200;21.052;2023-02-01T03:02:42;3.30;99.90
19172;DHT22;9718;52.200;21.052;2023-02-01T03:05:35;3.40;99.90
19172;DHT22;9718;52.200;21.052;2023-02-01T03:13:08;3.40;99.90
19172;DHT22;9718;52.200;21.052;2023-02-01T03:15:43;3.40;99.90
19172;DHT22;9718;52.200;21.052;2023-02-01T03:18:17;3.40;99.90
19172;DHT22;9718;52.200;21.052;2023-02-01T03:20:49;3.40;99.90
19172;DHT22;9718;52.200;21.052;2023-02-01T03:23:21;3.40;99.90
19172;DHT22;9718;52.200;21.052;2023-02-01T03:25:51;3.40;99.90
19172;DHT22;9718;52.200;21.052;2023-02-01T03:28:23;3.40;99.90
19172;DHT22;9718;52.200;21.052;2023-02-01T03:30:50;3.40;99.90
19172;DHT22;9718;52.200;21.052;2023-02-01T03:33:21;3.40;99.90
19172;DHT22;9718;52.200;21.052;2023-02-01T03:36:15;3.40;99.90
19172;DHT22;9718;52.200;21.052;2023-02-01T03:39:12;3.40;99.90
19172;DHT22;9718;52.200;21.052;2023-02-01T03:41:45;3.30;99.90
19172;DHT22;9718;52.200;21.052;2023-02-01T03:47:05;3.10;99.90
19172;DHT22;9718;52.200;21.052;2023-02-01T03:49:51;3.00;99.90
19172;DHT22;9718;52.200;21.052;2023-02-01T03:55:03;2.90;99.90
19172;DHT22;9718;52.200;21.052;2023-02-01T03:57:35;2.90;99.90
19172;DHT22;9718;52.200;21.052;2023-02-01T04:00:09;3.00;99.90
19172;DHT22;9718;52.200;21.052;2023-02-01T04:02:37;3.10;99.90
19172;DHT22;9718;52.200;21.052;2023-02-01T04:05:04;3.00;99.90
19172;DHT22;9718;52.200;21.052;2023-02-01T04:07:31;3.00;99.90
19172;DHT22;9718;52.200;21.052;2023-02-01T04:09:58;3.10;99.90
19172;DHT22;9718;52.200;21.052;2023-02-01T04:12:26;3.20;99.90
19172;DHT22;9718;52.200;21.052;2023-02-01T04:14:53;3.10;99.90
19172;DHT22;9718;52.200;21.052;2023-02-01T04:17:20;3.10;99.90
19172;DHT22;9718;52.200;21.052;2023-02-01T04:19:47;3.10;99.90
19172;DHT22;9718;52.200;21.052;2023-02-01T04:22:14;3.10;99.90
19172;DHT22;9718;52.200;21.052;2023-02-01T04:24:40;3.20;99.90
19172;DHT22;9718;52.200;21.052;2023-02-01T04:27:08;3.20;99.90
19172;DHT22;9718;52.200;21.052;2023-02-01T04:29:35;3.20;99.90
19172;DHT22;9718;52.200;21.052;2023-02-01T04:32:02;3.30;99.90
19172;DHT22;9718;52.200;21.052;2023-02-01T04:34:29;3.30;99.90
19172;DHT22;9718;52.200;21.052;2023-02-01T04:36:56;3.30;99.90
19172;DHT22;9718;52.200;21.052;2023-02-01T04:39:23;3.30;99.90
19172;DHT22;9718;52.200;21.052;2023-02-01T04:41:51;3.30;99.90
19172;DHT22;9718;52.200;21.052;2023-02-01T04:44:18;3.20;99.90
19172;DHT22;9718;52.200;21.052;2023-02-01T04:46:46;3.20;99.90
19172;DHT22;9718;52.200;21.052;2023-02-01T04:49:14;3.30;99.90
19172;DHT22;9718;52.200;21.052;2023-02-01T04:51:42;3.40;99.90
19172;DHT22;9718;52.200;21.052;2023-02-01T04:54:10;3.40;99.90
19172;DHT22;9718;52.200;21.052;2023-02-01T04:56:40;3.50;99.90
19172;DHT22;9718;52.200;21.052;2023-02-01T04:59:07;3.50;99.90
19172;DHT22;9718;52.200;21.052;2023-02-01T05:01:34;3.50;99.90
19172;DHT22;9718;52.200;21.052;2023-02-01T05:04:01;3.50;99.90
19172;DHT22;9718;52.200;21.052;2023-02-01T05:06:28;3.50;99.90
19172;DHT22;9718;52.200;21.052;2023-02-01T05:08:55;3.50;99.90
19172;DHT22;9718;52.200;21.052;2023-02-01T05:11:23;3.60;99.90
19172;DHT22;9718;52.200;21.052;2023-02-01T05:14:08;3.50;99.90
19172;DHT22;9718;52.200;21.052;2023-02-01T05:16:37;3.50;99.90
19172;DHT22;9718;52.200;21.052;2023-02-01T05:19:04;3.50;99.90
19172;DHT22;9718;52.200;21.052;2023-02-01T05:21:31;3.50;99.90
19172;DHT22;9718;52.200;21.052;2023-02-01T05:23:58;3.60;99.90
19172;DHT22;9718;52.200;21.052;2023-02-01T05:26:40;3.60;99.90
19172;DHT22;9718;52.200;21.052;2023-02-01T05:29:08;3.60;99.90
19172;DHT22;9718;52.200;21.052;2023-02-01T05:31:36;3.60;99.90
19172;DHT22;9718;52.200;21.052;2023-02-01T05:34:04;3.60;99.90
19172;DHT22;9718;52.200;21.052;2023-02-01T05:36:31;3.60;99.90
19172;DHT22;9718;52.200;21.052;2023-02-01T05:38:58;3.60;99.90
19172;DHT22;9718;52.200;21.052;2023-02-01T05:41:26;3.60;99.90
19172;DHT22;9718;52.200;21.052;2023-02-01T05:43:53;3.60;99.90
19172;DHT22;9718;52.200;21.052;2023-02-01T05:46:20;3.50;99.90
19172;DHT22;9718;52.200;21.052;2023-02-01T05:48:48;3.50;99.90
19172;DHT22;9718;52.200;21.052;2023-02-01T05:51:15;3.40;99.90
19172;DHT22;9718;52.200;21.052;2023-02-01T05:53:42;3.40;99.90
19172;DHT22;9718;52.200;21.052;2023-02-01T05:56:09;3.40;99.90
19172;DHT22;9718;52.200;21.052;2023-02-01T05:58:36;3.40;99.90
19172;DHT22;9718;52.200;21.052;2023-02-01T06:01:04;3.40;99.90
19172;DHT22;9718;52.200;21.052;2023-02-01T06:03:31;3.40;99.90
19172;DHT22;9718;52.200;21.052;2023-02-01T06:05:58;3.40;99.90
19172;DHT22;9718;52.200;21.052;2023-02-01T06:08:27;3.40;99.90
19172;DHT22;9718;52.200;21.052;2023-02-01T06:11:04;3.50;99.90
19172;DHT22;9718;52.200;21.052;2023-02-01T06:13:32;3.60;99.90
19172;DHT22;9718;52.200;21.052;2023-02-01T06:19:42;3.50;99.90
19172;DHT22;9718;52.200;21.052;2023-02-01T06:22:34;3.50;99.90
19172;DHT22;9718;52.200;21.052;2023-02-01T06:25:05;3.50;99.90
19172;DHT22;9718;52.200;21.052;2023-02-01T06:27:34;3.50;99.90
19172;DHT22;9718;52.200;21.052;2023-02-01T06:30:01;3.50;99.90
19172;DHT22;9718;52.200;21.052;2023-02-01T06:32:28;3.50;99.90
19172;DHT22;9718;52.200;21.052;2023-02-01T06:34:55;3.70;99.90
19172;DHT22;9718;52.200;21.052;2023-02-01T06:37:24;3.70;99.90
19172;DHT22;9718;52.200;21.052;2023-02-01T06:39:51;3.70;99.90
19172;DHT22;9718;52.200;21.052;2023-02-01T06:42:19;3.80;99.90
19172;DHT22;9718;52.200;21.052;2023-02-01T06:44:46;3.70;99.90
19172;DHT22;9718;52.200;21.052;2023-02-01T06:47:13;3.80;99.90
19172;DHT22;9718;52.200;21.052;2023-02-01T06:49:40;3.70;99.90
19172;DHT22;9718;52.200;21.052;2023-02-01T06:52:07;3.70;99.90
19172;DHT22;9718;52.200;21.052;2023-02-01T06:54:34;3.70;99.90
19172;DHT22;9718;52.200;21.052;2023-02-01T06:57:04;3.70;99.90
19172;DHT22;9718;52.200;21.052;2023-02-01T06:59:31;3.70;99.90
19172;DHT22;9718;52.200;21.052;2023-02-01T07:01:59;3.70;99.90
19172;DHT22;9718;52.200;21.052;2023-02-01T07:04:26;3.70;99.90
19172;DHT22;9718;52.200;21.052;2023-02-01T07:06:59;3.70;99.90
19172;DHT22;9718;52.200;21.052;2023-02-01T07:09:26;3.70;99.90
19172;DHT22;9718;52.200;21.052;2023-02-01T07:11:53;3.80;99.90
19172;DHT22;9718;52.200;21.052;2023-02-01T07:14:20;3.80;99.90
19172;DHT22;9718;52.200;21.052;2023-02-01T07:16:47;3.90;99.90
19172;DHT22;9718;52.200;21.052;2023-02-01T07:19:14;3.80;99.90
19172;DHT22;9718;52.200;21.052;2023-02-01T07:21:41;3.90;99.90
19172;DHT22;9718;52.200;21.052;2023-02-01T07:24:09;3.90;99.90
19172;DHT22;9718;52.200;21.052;2023-02-01T07:26:36;3.90;99.90
19172;DHT22;9718;52.200;21.052;2023-02-01T07:29:04;3.80;99.90
19172;DHT22;9718;52.200;21.052;2023-02-01T07:31:31;3.80;99.90
19172;DHT22;9718;52.200;21.052;2023-02-01T07:33:59;3.90;99.90
19172;DHT22;9718;52.200;21.052;2023-02-01T07:36:27;3.80;99.90
19172;DHT22;9718;52.200;21.052;2023-02-01T07:38:54;3.80;99.90
19172;DHT22;9718;52.200;21.052;2023-02-01T07:41:23;3.90;99.90
19172;DHT22;9718;52.200;21.052;2023-02-01T07:43:52;3.80;99.90
19172;DHT22;9718;52.200;21.052;2023-02-01T07:46:20;3.80;99.90
19172;DHT22;9718;52.200;21.052;2023-02-01T07:48:47;3.80;99.90
19172;DHT22;9718;52.200;21.052;2023-02-01T07:51:16;3.80;99.90
19172;DHT22;9718;52.200;21.052;2023-02-01T07:53:44;3.80;99.90
19172;DHT22;9718;52.200;21.052;2023-02-01T07:56:19;3.90;99.90
19172;DHT22;9718;52.200;21.052;2023-02-01T07:58:51;4.00;99.90
19172;DHT22;9718;52.200;21.052;2023-02-01T08:01:21;3.90;99.90
19172;DHT22;9718;52.200;21.052;2023-02-01T08:06:21;3.80;99.90
19172;DHT22;9718;52.200;21.052;2023-02-01T08:08:49;3.80;99.90
19172;DHT22;9718;52.200;21.052;2023-02-01T08:11:17;3.80;99.90
19172;DHT22;9718;52.200;21.052;2023-02-01T08:13:45;3.80;99.90
19172;DHT22;9718;52.200;21.052;2023-02-01T08:16:14;3.70;99.90
19172;DHT22;9718;52.200;21.052;2023-02-01T08:18:42;3.60;99.90
19172;DHT22;9718;52.200;21.052;2023-02-01T08:21:21;3.70;99.90
19172;DHT22;9718;52.200;21.052;2023-02-01T08:23:49;3.70;99.90
19172;DHT22;9718;52.200;21.052;2023-02-01T08:26:24;3.70;99.90
19172;DHT22;9718;52.200;21.052;2023-02-01T08:28:56;3.70;99.90
19172;DHT22;9718;52.200;21.052;2023-02-01T08:31:26;3.80;99.90
19172;DHT22;9718;52.200;21.052;2023-02-01T08:33:55;3.80;99.90
19172;DHT22;9718;52.200;21.052;2023-02-01T08:36:24;3.80;99.90
19172;DHT22;9718;52.200;21.052;2023-02-01T08:38:52;3.80;99.90
19172;DHT22;9718;52.200;21.052;2023-02-01T08:41:22;3.80;99.90
19172;DHT22;9718;52.200;21.052;2023-02-01T08:43:49;3.70;99.90
19172;DHT22;9718;52.200;21.052;2023-02-01T08:46:17;3.80;99.90
19172;DHT22;9718;52.200;21.052;2023-02-01T08:48:46;3.80;99.90
19172;DHT22;9718;52.200;21.052;2023-02-01T08:51:15;3.70;99.90
19172;DHT22;9718;52.200;21.052;2023-02-01T08:53:42;3.70;99.90
19172;DHT22;9718;52.200;21.052;2023-02-01T08:56:11;3.70;99.90
19172;DHT22;9718;52.200;21.052;2023-02-01T08:58:39;3.60;99.90
19172;DHT22;9718;52.200;21.052;2023-02-01T09:01:09;3.60;99.90
19172;DHT22;9718;52.200;21.052;2023-02-01T09:03:36;3.70;99.90
19172;DHT22;9718;52.200;21.052;2023-02-01T09:06:05;3.80;99.90
19172;DHT22;9718;52.200;21.052;2023-02-01T09:08:33;3.80;99.90
19172;DHT22;9718;52.200;21.052;2023-02-01T09:11:02;3.90;99.90
19172;DHT22;9718;52.200;21.052;2023-02-01T09:13:30;4.00;99.90
19172;DHT22;9718;52.200;21.052;2023-02-01T09:15:57;4.10;99.90
19172;DHT22;9718;52.200;21.052;2023-02-01T09:18:26;4.10;99.90
19172;DHT22;9718;52.200;21.052;2023-02-01T09:20:54;4.20;99.90
19172;DHT22;9718;52.200;21.052;2023-02-01T09:23:21;4.20;99.90
19172;DHT22;9718;52.200;21.052;2023-02-01T09:25:49;4.20;99.90
19172;DHT22;9718;52.200;21.052;2023-02-01T09:28:18;4.30;99.90
19172;DHT22;9718;52.200;21.052;2023-02-01T09:30:46;4.30;99.90
19172;DHT22;9718;52.200;21.052;2023-02-01T09:33:13;4.30;99.90
19172;DHT22;9718;52.200;21.052;2023-02-01T09:35:40;4.40;99.90
19172;DHT22;9718;52.200;21.052;2023-02-01T09:38:08;4.50;99.90
19172;DHT22;9718;52.200;21.052;2023-02-01T09:40:35;4.40;99.90
19172;DHT22;9718;52.200;21.052;2023-02-01T09:43:34;4.50;99.90
19172;DHT22;9718;52.200;21.052;2023-02-01T09:46:29;4.40;99.90
19172;DHT22;9718;52.200;21.052;2023-02-01T09:49:00;4.40;99.90
19172;DHT22;9718;52.200;21.052;2023-02-01T09:51:43;4.50;99.90
19172;DHT22;9718;52.200;21.052;2023-02-01T09:54:24;4.60;99.90
19172;DHT22;9718;52.200;21.052;2023-02-01T09:57:06;4.80;99.90
19172;DHT22;9718;52.200;21.052;2023-02-01T10:02:25;4.90;99.90
19172;DHT22;9718;52.200;21.052;2023-02-01T10:04:57;5.00;99.90
19172;DHT22;9718;52.200;21.052;2023-02-01T10:13:31;5.20;99.90
19172;DHT22;9718;52.200;21.052;2023-02-01T10:16:37;5.40;99.90
19172;DHT22;9718;52.200;21.052;2023-02-01T10:22:40;5.20;99.90
19172;DHT22;9718;52.200;21.052;2023-02-01T10:25:54;5.20;99.90
19172;DHT22;9718;52.200;21.052;2023-02-01T10:28:23;5.20;99.90
19172;DHT22;9718;52.200;21.052;2023-02-01T10:30:54;5.10;99.90
19172;DHT22;9718;52.200;21.052;2023-02-01T10:33:43;5.10;99.90
19172;DHT22;9718;52.200;21.052;2023-02-01T10:39:00;4.90;99.90
19172;DHT22;9718;52.200;21.052;2023-02-01T10:41:33;5.00;99.90
19172;DHT22;9718;52.200;21.052;2023-02-01T10:44:14;4.90;99.90
19172;DHT22;9718;52.200;21.052;2023-02-01T10:46:43;4.90;99.90
19172;DHT22;9718;52.200;21.052;2023-02-01T10:49:38;4.90;99.90
19172;DHT22;9718;52.200;21.052;2023-02-01T10:52:16;5.00;99.90
19172;DHT22;9718;52.200;21.052;2023-02-01T10:54:44;5.10;99.90
19172;DHT22;9718;52.200;21.052;2023-02-01T10:57:25;5.30;99.90
19172;DHT22;9718;52.200;21.052;2023-02-01T10:59:55;5.10;99.90
19172;DHT22;9718;52.200;21.052;2023-02-01T11:02:41;5.10;99.90
19172;DHT22;9718;52.200;21.052;2023-02-01T11:05:09;5.00;99.90
19172;DHT22;9718;52.200;21.052;2023-02-01T11:07:40;5.10;99.90
19172;DHT22;9718;52.200;21.052;2023-02-01T11:13:04;5.30;99.90
19172;DHT22;9718;52.200;21.052;2023-02-01T11:15:32;5.50;99.90
19172;DHT22;9718;52.200;21.052;2023-02-01T11:18:15;5.70;99.90
19172;DHT22;9718;52.200;21.052;2023-02-01T11:20:44;6.10;99.90
19172;DHT22;9718;52.200;21.052;2023-02-01T11:23:19;6.20;99.90
19172;DHT22;9718;52.200;21.052;2023-02-01T11:25:58;6.60;99.90
19172;DHT22;9718;52.200;21.052;2023-02-01T11:28:33;6.70;99.90
19172;DHT22;9718;52.200;21.052;2023-02-01T11:31:04;6.30;99.90
19172;DHT22;9718;52.200;21.052;2023-02-01T11:33:35;6.20;99.90
19172;DHT22;9718;52.200;21.052;2023-02-01T11:36:15;6.10;99.90
19172;DHT22;9718;52.200;21.052;2023-02-01T11:44:39;5.50;99.90
19172;DHT22;9718;52.200;21.052;2023-02-01T11:50:00;5.50;99.90
19172;DHT22;9718;52.200;21.052;2023-02-01T11:52:49;5.40;99.90
19172;DHT22;9718;52.200;21.052;2023-02-01T11:55:41;5.30;99.90
19172;DHT22;9718;52.200;21.052;2023-02-01T11:58:25;5.50;99.90
19172;DHT22;9718;52.200;21.052;2023-02-01T12:06:56;5.80;99.90
19172;DHT22;9718;52.200;21.052;2023-02-01T12:23:46;5.60;99.90
19172;DHT22;9718;52.200;21.052;2023-02-01T12:32:20;5.50;99.90
19172;DHT22;9718;52.200;21.052;2023-02-01T12:35:09;5.40;99.90
19172;DHT22;9718;52.200;21.052;2023-02-01T12:37:48;5.60;99.90
19172;DHT22;9718;52.200;21.052;2023-02-01T12:43:11;5.50;99.90
19172;DHT22;9718;52.200;21.052;2023-02-01T12:45:54;5.20;99.90
19172;DHT22;9718;52.200;21.052;2023-02-01T12:51:17;5.20;99.90
19172;DHT22;9718;52.200;21.052;2023-02-01T12:56:57;5.30;99.90
19172;DHT22;9718;52.200;21.052;2023-02-01T12:59:33;5.40;99.90
19172;DHT22;9718;52.200;21.052;2023-02-01T13:05:12;5.40;99.90
19172;DHT22;9718;52.200;21.052;2023-02-01T13:07:53;5.50;99.90
19172;DHT22;9718;52.200;21.052;2023-02-01T13:10:40;5.40;99.90
19172;DHT22;9718;52.200;21.052;2023-02-01T13:15:56;5.60;99.90
19172;DHT22;9718;52.200;21.052;2023-02-01T13:18:27;5.70;99.90
19172;DHT22;9718;52.200;21.052;2023-02-01T13:21:04;5.50;99.90
19172;DHT22;9718;52.200;21.052;2023-02-01T13:23:38;5.30;99.90
19172;DHT22;9718;52.200;21.052;2023-02-01T13:26:06;5.30;99.90
19172;DHT22;9718;52.200;21.052;2023-02-01T13:36:56;5.30;99.90
19172;DHT22;9718;52.200;21.052;2023-02-01T13:42:24;5.30;99.90
19172;DHT22;9718;52.200;21.052;2023-02-01T13:45:04;5.20;99.90
19172;DHT22;9718;52.200;21.052;2023-02-01T13:47:35;5.10;99.90
19172;DHT22;9718;52.200;21.052;2023-02-01T13:53:00;5.10;99.90
19172;DHT22;9718;52.200;21.052;2023-02-01T13:55:35;5.10;99.90
19172;DHT22;9718;52.200;21.052;2023-02-01T14:01:35;5.00;99.90
19172;DHT22;9718;52.200;21.052;2023-02-01T14:04:05;5.10;99.90
19172;DHT22;9718;52.200;21.052;2023-02-01T14:06:42;5.10;99.90
19172;DHT22;9718;52.200;21.052;2023-02-01T14:11:47;5.10;99.90
19172;DHT22;9718;52.200;21.052;2023-02-01T14:19:33;4.90;99.90
19172;DHT22;9718;52.200;21.052;2023-02-01T14:24:57;5.00;99.90
19172;DHT22;9718;52.200;21.052;2023-02-01T14:27:27;5.10;99.90
19172;DHT22;9718;52.200;21.052;2023-02-01T14:30:00;5.10;99.90
19172;DHT22;9718;52.200;21.052;2023-02-01T14:32:34;5.00;99.90
19172;DHT22;9718;52.200;21.052;2023-02-01T14:35:07;5.00;99.90
19172;DHT22;9718;52.200;21.052;2023-02-01T14:37:37;5.10;99.90
19172;DHT22;9718;52.200;21.052;2023-02-01T14:40:17;5.10;99.90
19172;DHT22;9718;52.200;21.052;2023-02-01T14:42:48;5.10;99.90
19172;DHT22;9718;52.200;21.052;2023-02-01T14:56:04;5.10;99.90
19172;DHT22;9718;52.200;21.052;2023-02-01T15:01:29;5.10;99.90
19172;DHT22;9718;52.200;21.052;2023-02-01T15:09:33;5.00;99.90
19172;DHT22;9718;52.200;21.052;2023-02-01T15:14:38;5.00;99.90
19172;DHT22;9718;52.200;21.052;2023-02-01T15:17:25;5.00;99.90
19172;DHT22;9718;52.200;21.052;2023-02-01T15:20:01;5.10;99.90
19172;DHT22;9718;52.200;21.052;2023-02-01T15:22:31;5.00;99.90
19172;DHT22;9718;52.200;21.052;2023-02-01T15:24:59;4.90;99.90
19172;DHT22;9718;52.200;21.052;2023-02-01T15:27:28;4.90;99.90
19172;DHT22;9718;52.200;21.052;2023-02-01T15:30:12;4.90;99.90
19172;DHT22;9718;52.200;21.052;2023-02-01T15:32:42;5.00;99.90
19172;DHT22;9718;52.200;21.052;2023-02-01T15:35:34;5.10;99.90
19172;DHT22;9718;52.200;21.052;2023-02-01T15:38:39;5.00;99.90
19172;DHT22;9718;52.200;21.052;2023-02-01T15:41:16;5.00;99.90
19172;DHT22;9718;52.200;21.052;2023-02-01T15:48:59;5.10;99.90
19172;DHT22;9718;52.200;21.052;2023-02-01T15:51:29;5.10;99.90
19172;DHT22;9718;52.200;21.052;2023-02-01T15:54:04;5.00;99.90
19172;DHT22;9718;52.200;21.052;2023-02-01T15:56:38;4.80;99.90
19172;DHT22;9718;52.200;21.052;2023-02-01T15:59:13;4.90;99.90
19172;DHT22;9718;52.200;21.052;2023-02-01T16:01:42;4.90;99.90
19172;DHT22;9718;52.200;21.052;2023-02-01T16:04:20;4.80;99.90
19172;DHT22;9718;52.200;21.052;2023-02-01T16:06:52;4.70;99.90
19172;DHT22;9718;52.200;21.052;2023-02-01T16:09:24;4.70;99.90
19172;DHT22;9718;52.200;21.052;2023-02-01T16:11:58;4.70;99.90
19172;DHT22;9718;52.200;21.052;2023-02-01T16:14:26;4.60;99.90
19172;DHT22;9718;52.200;21.052;2023-02-01T16:16:56;4.50;99.90
19172;DHT22;9718;52.200;21.052;2023-02-01T16:19:24;4.40;99.90
19172;DHT22;9718;52.200;21.052;2023-02-01T16:21:55;4.40;99.90
19172;DHT22;9718;52.200;21.052;2023-02-01T16:24:22;4.40;99.90
19172;DHT22;9718;52.200;21.052;2023-02-01T16:26:52;4.40;99.90
19172;DHT22;9718;52.200;21.052;2023-02-01T16:29:20;4.40;99.90
19172;DHT22;9718;52.200;21.052;2023-02-01T16:31:48;4.40;99.90
19172;DHT22;9718;52.200;21.052;2023-02-01T16:34:17;4.50;99.90
19172;DHT22;9718;52.200;21.052;2023-02-01T16:36:48;4.50;99.90
19172;DHT22;9718;52.200;21.052;2023-02-01T16:39:20;4.50;99.90
19172;DHT22;9718;52.200;21.052;2023-02-01T16:41:48;4.50;99.90
19172;DHT22;9718;52.200;21.052;2023-02-01T16:44:15;4.40;99.90
19172;DHT22;9718;52.200;21.052;2023-02-01T16:46:46;4.40;99.90
19172;DHT22;9718;52.200;21.052;2023-02-01T16:49:23;4.40;99.90
19172;DHT22;9718;52.200;21.052;2023-02-01T16:51:52;4.40;99.90
19172;DHT22;9718;52.200;21.052;2023-02-01T16:54:23;4.40;99.90
19172;DHT22;9718;52.200;21.052;2023-02-01T16:56:50;4.40;99.90
19172;DHT22;9718;52.200;21.052;2023-02-01T16:59:17;4.40;99.90
19172;DHT22;9718;52.200;21.052;2023-02-01T17:01:44;4.30;99.90
19172;DHT22;9718;52.200;21.052;2023-02-01T17:04:11;4.30;99.90
19172;DHT22;9718;52.200;21.052;2023-02-01T17:06:39;4.20;99.90
19172;DHT22;9718;52.200;21.052;2023-02-01T17:09:08;4.30;99.90
19172;DHT22;9718;52.200;21.052;2023-02-01T17:11:35;4.30;99.90
19172;DHT22;9718;52.200;21.052;2023-02-01T17:14:24;4.30;99.90
19172;DHT22;9718;52.200;21.052;2023-02-01T17:16:52;4.30;99.90
19172;DHT22;9718;52.200;21.052;2023-02-01T17:19:21;4.50;99.90
19172;DHT22;9718;52.200;21.052;2023-02-01T17:21:54;4.40;99.90
19172;DHT22;9718;52.200;21.052;2023-02-01T17:24:25;4.40;99.90
19172;DHT22;9718;52.200;21.052;2023-02-01T17:27:02;4.50;99.90
19172;DHT22;9718;52.200;21.052;2023-02-01T17:29:30;4.50;99.90
19172;DHT22;9718;52.200;21.052;2023-02-01T17:31:57;4.50;99.90
19172;DHT22;9718;52.200;21.052;2023-02-01T17:34:26;4.40;99.90
19172;DHT22;9718;52.200;21.052;2023-02-01T17:36:54;4.40;99.90
19172;DHT22;9718;52.200;21.052;2023-02-01T17:39:21;4.40;99.90
19172;DHT22;9718;52.200;21.052;2023-02-01T17:42:11;4.30;99.90
19172;DHT22;9718;52.200;21.052;2023-02-01T17:44:38;4.40;99.90
19172;DHT22;9718;52.200;21.052;2023-02-01T17:47:05;4.30;99.90
19172;DHT22;9718;52.200;21.052;2023-02-01T17:49:32;4.20;99.90
19172;DHT22;9718;52.200;21.052;2023-02-01T17:52:01;4.30;99.90
19172;DHT22;9718;52.200;21.052;2023-02-01T17:54:28;4.20;99.90
19172;DHT22;9718;52.200;21.052;2023-02-01T17:56:56;4.20;99.90
19172;DHT22;9718;52.200;21.052;2023-02-01T17:59:26;4.20;99.90
19172;DHT22;9718;52.200;21.052;2023-02-01T18:01:54;4.30;99.90
19172;DHT22;9718;52.200;21.052;2023-02-01T18:04:26;4.10;99.90
19172;DHT22;9718;52.200;21.052;2023-02-01T18:06:53;4.20;99.90
19172;DHT22;9718;52.200;21.052;2023-02-01T18:09:22;4.10;99.90
19172;DHT22;9718;52.200;21.052;2023-02-01T18:11:49;4.10;99.90
19172;DHT22;9718;52.200;21.052;2023-02-01T18:14:16;4.10;99.90
19172;DHT22;9718;52.200;21.052;2023-02-01T18:16:43;4.10;99.90
19172;DHT22;9718;52.200;21.052;2023-02-01T18:19:10;4.10;99.90
19172;DHT22;9718;52.200;21.052;2023-02-01T18:21:40;4.30;99.90
19172;DHT22;9718;52.200;21.052;2023-02-01T18:24:12;4.20;99.90
19172;DHT22;9718;52.200;21.052;2023-02-01T18:26:40;4.20;99.90
19172;DHT22;9718;52.200;21.052;2023-02-01T18:29:08;4.20;99.90
19172;DHT22;9718;52.200;21.052;2023-02-01T18:31:44;4.20;99.90
19172;DHT22;9718;52.200;21.052;2023-02-01T18:34:12;4.10;99.90
19172;DHT22;9718;52.200;21.052;2023-02-01T18:36:50;3.80;99.90
19172;DHT22;9718;52.200;21.052;2023-02-01T18:39:17;3.80;99.90
19172;DHT22;9718;52.200;21.052;2023-02-01T18:41:46;3.70;99.90
19172;DHT22;9718;52.200;21.052;2023-02-01T18:44:14;3.80;99.90
19172;DHT22;9718;52.200;21.052;2023-02-01T18:46:42;3.80;99.90
19172;DHT22;9718;52.200;21.052;2023-02-01T18:49:09;3.80;99.90
19172;DHT22;9718;52.200;21.052;2023-02-01T18:51:39;3.70;99.90
19172;DHT22;9718;52.200;21.052;2023-02-01T18:54:10;3.70;99.90
19172;DHT22;9718;52.200;21.052;2023-02-01T18:56:38;3.70;99.90
19172;DHT22;9718;52.200;21.052;2023-02-01T18:59:05;3.70;99.90